Ana Sayfa
METAR-TAF:

METAR-TAF

Havaalanları :

Ciudad Juarez, Meksika

Enlem: 31-38N, Boylam: 106-26W, yükseklik: 1171 m

Güncel hava durumu gözlemi

Rapor saat 02:40 UTC de 8 saat ve 7 dakika önce yapıldı.
Rüzgar batı/güneybatıdan 5 kt
Sıcaklık 30°C
Nem 9%
Basınç 1014 hPa
Görüş mesafesi: 16.1 km
Açık gökyüzü

METAR: MMCS 240240Z 25005KT 10SM SKC 30/M07 A2994 RMK SLP019 52003 909

Saat: 04:47 (10:47 UTC)

Tahmin

Rapor saat 04:58 UTC de 5 saat ve 49 dakika önce yapıldı.
Ayın 24'si saat 06 UTC'den ayın 25'si saat 06 UTC'ye kadar geçerli Tahmin
Rüzgar batı/güneybatıdan 5 kt
Görüş mesafesi: 10 km
Açık gökyüzü
Ayın 24'si saat 1800 UTC'den
Rüzgar güneybatıdan 10 kt
Görüş mesafesi: 10 km
Açık gökyüzü
Ayın 25'si saat 0400 UTC'den
Rüzgar güney/güneybatıdan 5 kt
Görüş mesafesi: 10 km
Açık gökyüzü

TAF: MMCS 240458Z 2406/2506 25005KT P6SM SKC FM241800 23010KT P6SM SKC FM250400 20005KT P6SM SKC

4.000'den fazla havaalanı için hava durumu gözlemleri ve tahminleri (METAR ve TAF raporları).

Kullanılabilir istasyonlar harita üzerinde sarı ve kırmızı noktalarla gösterilir.

İstasyonun adını görmek için fareyi noktanın üzerinde gezdirin.

Sonrasında hava gözlem ve tahminlerini görmek için tıklayın.

Haritayı değiştirmek için: yaklaştırmak için siyah artı işaretli yeşil düğmeye ve uzaklaştırmak için de eksi işaretli düğmeye hızla tıklayın; bitişik haritalar için yeşil okları kullanın.


METAR-TAF: